Aérodrome :
LOGIN :

S'inscrire | Disclaimer

   EN    FR    IT 

 










Légende :    VFR   VFR Marginal   IFR   IFR Intensif   IFR Très Intensif
Visi : 
Plafond : 
>= 8 km
>= 3000ft
5 à 8 km
1000 à 3000 ft
1500m à 5 km
500 à 1000 ft
800 à 1500m
200 à 500 ft
< 800m
< 200 ft
Symboles :   Orages  Brouillard  Fortes neiges  Fortes précipitations  Vent > 20 kt
SIGMETs :   Divers  Orages  Givrage  Turbulence  Onde Orograph.  Cendres Volcan.







- Altitude de l'aérodrome : 1649 ft
- Code IATA : HHN


EDFH - Frankfurt-Hahn Rhineland-Palatinate

DERNIER METAR :
  • 191820Z VRB02KT 9999 FEW024 BKN066 13/12 Q1021

METARs EXPIRÉS :
  • 191750Z 26004KT 9999 FEW024 BKN070 13/13 Q1021
  • 191720Z 26005KT 9999 FEW019 BKN070 13/13 Q1020
  • 191650Z 25011KT 220V280 9999 4000NE -SHRA FEW020TCU 13/12 Q1020
  • 191620Z 25010KT 9999 VCSH FEW027 15/10 Q1020
  • 191550Z 25012KT 9999 FEW028 15/10 Q1020

TAF TAF EDFH
Valide du 19 à 18h jusqu'au 20 à 18h UTC


191700Z 1918/2018 26011KT 9999 FEW040
PROB30
TEMPO 1918/1920 SHRA BKN040TCU
BECMG 1918/1922 25006KT
Pas de NOTAMs connus pour ce terrain.



MET'MAP, la Météo Aéronautique d'un coup d'oeil ! - Copyright ORBIFLY Décembre 2007 - Disclaimer

ORBIFLY MET'MAP TEAM :

Programmation & Développement : Alexandra Zaïnal
Conception & Développement : Baudouin d'Aumeries
Co-Programmation & Développement : Marc-Olivier Méhu
Soutien technique & logistique : Manuel Goepfert

Contact : metmap@orbifly.com




SOURCES & CREDITS :

   NOAA